sensor_id;sensor_type;location;lat;lon;timestamp;P1;durP1;ratioP1;P2;durP2;ratioP2
76714;SDS011;65644;44.990;20.288;2024-01-06T00:01:25;12.50;;;7.85;;
76714;SDS011;65644;44.990;20.288;2024-01-06T00:03:51;12.30;;;7.15;;
76714;SDS011;65644;44.990;20.288;2024-01-06T00:06:17;10.52;;;7.20;;
76714;SDS011;65644;44.990;20.288;2024-01-06T00:08:43;10.15;;;7.03;;
76714;SDS011;65644;44.990;20.288;2024-01-06T00:11:09;10.52;;;7.32;;
76714;SDS011;65644;44.990;20.288;2024-01-06T00:13:36;9.90;;;6.57;;
76714;SDS011;65644;44.990;20.288;2024-01-06T00:16:02;8.60;;;6.25;;
76714;SDS011;65644;44.990;20.288;2024-01-06T00:18:28;10.23;;;6.72;;
76714;SDS011;65644;44.990;20.288;2024-01-06T00:20:54;11.30;;;6.22;;
76714;SDS011;65644;44.990;20.288;2024-01-06T00:23:21;8.82;;;6.15;;
76714;SDS011;65644;44.990;20.288;2024-01-06T00:25:47;12.68;;;6.40;;
76714;SDS011;65644;44.990;20.288;2024-01-06T00:28:13;9.77;;;6.55;;
76714;SDS011;65644;44.990;20.288;2024-01-06T00:30:39;13.02;;;6.63;;
76714;SDS011;65644;44.990;20.288;2024-01-06T00:33:05;11.35;;;6.70;;
76714;SDS011;65644;44.990;20.288;2024-01-06T00:35:31;12.70;;;7.10;;
76714;SDS011;65644;44.990;20.288;2024-01-06T00:37:58;11.70;;;6.55;;
76714;SDS011;65644;44.990;20.288;2024-01-06T00:40:25;9.73;;;6.43;;
76714;SDS011;65644;44.990;20.288;2024-01-06T00:42:51;9.73;;;5.90;;
76714;SDS011;65644;44.990;20.288;2024-01-06T00:45:17;8.65;;;5.95;;
76714;SDS011;65644;44.990;20.288;2024-01-06T00:47:43;10.43;;;6.85;;
76714;SDS011;65644;44.990;20.288;2024-01-06T00:50:10;8.25;;;5.63;;
76714;SDS011;65644;44.990;20.288;2024-01-06T00:52:37;9.68;;;6.18;;
76714;SDS011;65644;44.990;20.288;2024-01-06T00:55:03;12.65;;;6.50;;
76714;SDS011;65644;44.990;20.288;2024-01-06T00:57:29;10.43;;;6.75;;
76714;SDS011;65644;44.990;20.288;2024-01-06T00:59:55;10.27;;;7.18;;
76714;SDS011;65644;44.990;20.288;2024-01-06T01:02:21;10.73;;;6.68;;
76714;SDS011;65644;44.990;20.288;2024-01-06T01:04:47;9.55;;;7.22;;
76714;SDS011;65644;44.990;20.288;2024-01-06T01:07:13;11.82;;;6.80;;
76714;SDS011;65644;44.990;20.288;2024-01-06T01:09:39;9.75;;;6.72;;
76714;SDS011;65644;44.990;20.288;2024-01-06T01:12:05;9.13;;;6.30;;
76714;SDS011;65644;44.990;20.288;2024-01-06T01:14:32;11.07;;;6.55;;
76714;SDS011;65644;44.990;20.288;2024-01-06T01:16:58;9.85;;;6.68;;
76714;SDS011;65644;44.990;20.288;2024-01-06T01:19:24;12.70;;;7.00;;
76714;SDS011;65644;44.990;20.288;2024-01-06T01:21:50;11.85;;;7.38;;
76714;SDS011;65644;44.990;20.288;2024-01-06T01:24:20;11.68;;;6.65;;
76714;SDS011;65644;44.990;20.288;2024-01-06T01:26:46;10.20;;;6.45;;
76714;SDS011;65644;44.990;20.288;2024-01-06T01:29:12;9.90;;;6.30;;
76714;SDS011;65644;44.990;20.288;2024-01-06T01:31:38;7.88;;;6.07;;
76714;SDS011;65644;44.990;20.288;2024-01-06T01:34:04;11.73;;;6.50;;
76714;SDS011;65644;44.990;20.288;2024-01-06T01:36:31;10.35;;;6.32;;
76714;SDS011;65644;44.990;20.288;2024-01-06T01:38:57;10.23;;;6.35;;
76714;SDS011;65644;44.990;20.288;2024-01-06T01:41:23;10.27;;;6.47;;
76714;SDS011;65644;44.990;20.288;2024-01-06T01:43:49;11.23;;;6.13;;
76714;SDS011;65644;44.990;20.288;2024-01-06T01:46:23;8.35;;;6.15;;
76714;SDS011;65644;44.990;20.288;2024-01-06T01:48:49;9.48;;;6.47;;
76714;SDS011;65644;44.990;20.288;2024-01-06T01:51:15;8.23;;;6.03;;
76714;SDS011;65644;44.990;20.288;2024-01-06T01:53:43;11.10;;;6.10;;
76714;SDS011;65644;44.990;20.288;2024-01-06T01:56:09;10.38;;;5.97;;
76714;SDS011;65644;44.990;20.288;2024-01-06T01:58:35;9.90;;;6.00;;
76714;SDS011;65644;44.990;20.288;2024-01-06T02:01:01;8.80;;;5.90;;
76714;SDS011;65644;44.990;20.288;2024-01-06T02:03:27;6.85;;;5.38;;
76714;SDS011;65644;44.990;20.288;2024-01-06T02:05:55;8.23;;;5.45;;
76714;SDS011;65644;44.990;20.288;2024-01-06T02:08:21;8.77;;;5.40;;
76714;SDS011;65644;44.990;20.288;2024-01-06T02:10:47;11.70;;;5.15;;
76714;SDS011;65644;44.990;20.288;2024-01-06T02:13:13;7.45;;;5.10;;
76714;SDS011;65644;44.990;20.288;2024-01-06T02:15:39;7.50;;;5.38;;
76714;SDS011;65644;44.990;20.288;2024-01-06T02:18:06;10.07;;;4.90;;
76714;SDS011;65644;44.990;20.288;2024-01-06T02:20:32;6.45;;;4.32;;
76714;SDS011;65644;44.990;20.288;2024-01-06T02:22:58;6.88;;;4.65;;
76714;SDS011;65644;44.990;20.288;2024-01-06T02:25:25;9.25;;;5.03;;
76714;SDS011;65644;44.990;20.288;2024-01-06T02:27:51;8.73;;;5.38;;
76714;SDS011;65644;44.990;20.288;2024-01-06T02:30:17;9.25;;;5.28;;
76714;SDS011;65644;44.990;20.288;2024-01-06T02:32:43;8.40;;;5.45;;
76714;SDS011;65644;44.990;20.288;2024-01-06T02:35:10;8.70;;;5.30;;
76714;SDS011;65644;44.990;20.288;2024-01-06T02:37:36;7.15;;;5.10;;
76714;SDS011;65644;44.990;20.288;2024-01-06T02:40:02;6.65;;;4.60;;
76714;SDS011;65644;44.990;20.288;2024-01-06T02:42:28;6.78;;;4.32;;
76714;SDS011;65644;44.990;20.288;2024-01-06T02:44:54;6.57;;;4.60;;
76714;SDS011;65644;44.990;20.288;2024-01-06T02:47:20;8.45;;;4.47;;
76714;SDS011;65644;44.990;20.288;2024-01-06T02:49:46;6.28;;;3.67;;
76714;SDS011;65644;44.990;20.288;2024-01-06T02:52:12;6.05;;;3.90;;
76714;SDS011;65644;44.990;20.288;2024-01-06T02:54:38;6.93;;;3.88;;
76714;SDS011;65644;44.990;20.288;2024-01-06T02:57:04;6.72;;;4.03;;
76714;SDS011;65644;44.990;20.288;2024-01-06T02:59:31;4.70;;;3.33;;
76714;SDS011;65644;44.990;20.288;2024-01-06T03:01:57;4.18;;;3.63;;
76714;SDS011;65644;44.990;20.288;2024-01-06T03:04:23;5.95;;;3.47;;
76714;SDS011;65644;44.990;20.288;2024-01-06T03:06:50;7.10;;;4.03;;
76714;SDS011;65644;44.990;20.288;2024-01-06T03:09:18;5.05;;;3.40;;
76714;SDS011;65644;44.990;20.288;2024-01-06T03:11:44;4.95;;;3.67;;
76714;SDS011;65644;44.990;20.288;2024-01-06T03:14:11;4.32;;;3.55;;
76714;SDS011;65644;44.990;20.288;2024-01-06T03:16:37;6.40;;;3.53;;
76714;SDS011;65644;44.990;20.288;2024-01-06T03:19:03;5.18;;;3.65;;
76714;SDS011;65644;44.990;20.288;2024-01-06T03:21:29;5.95;;;3.40;;
76714;SDS011;65644;44.990;20.288;2024-01-06T03:23:55;5.97;;;3.40;;
76714;SDS011;65644;44.990;20.288;2024-01-06T03:26:21;5.88;;;3.20;;
76714;SDS011;65644;44.990;20.288;2024-01-06T03:28:50;8.82;;;3.50;;
76714;SDS011;65644;44.990;20.288;2024-01-06T03:31:16;5.28;;;3.05;;
76714;SDS011;65644;44.990;20.288;2024-01-06T03:33:43;7.05;;;3.47;;
76714;SDS011;65644;44.990;20.288;2024-01-06T03:36:09;3.83;;;3.20;;
76714;SDS011;65644;44.990;20.288;2024-01-06T03:38:35;6.25;;;3.10;;
76714;SDS011;65644;44.990;20.288;2024-01-06T03:41:01;5.10;;;3.10;;
76714;SDS011;65644;44.990;20.288;2024-01-06T03:43:28;4.63;;;2.97;;
76714;SDS011;65644;44.990;20.288;2024-01-06T03:45:54;5.25;;;2.55;;
76714;SDS011;65644;44.990;20.288;2024-01-06T03:48:21;6.93;;;2.70;;
76714;SDS011;65644;44.990;20.288;2024-01-06T03:50:47;2.50;;;2.20;;
76714;SDS011;65644;44.990;20.288;2024-01-06T03:53:13;5.85;;;2.47;;
76714;SDS011;65644;44.990;20.288;2024-01-06T03:55:40;4.32;;;2.38;;
76714;SDS011;65644;44.990;20.288;2024-01-06T03:58:06;2.55;;;1.70;;
76714;SDS011;65644;44.990;20.288;2024-01-06T04:00:32;5.72;;;2.60;;
76714;SDS011;65644;44.990;20.288;2024-01-06T04:02:58;2.85;;;2.10;;
76714;SDS011;65644;44.990;20.288;2024-01-06T04:05:24;4.32;;;2.53;;
76714;SDS011;65644;44.990;20.288;2024-01-06T04:07:50;4.68;;;2.20;;
76714;SDS011;65644;44.990;20.288;2024-01-06T04:10:16;6.65;;;2.38;;
76714;SDS011;65644;44.990;20.288;2024-01-06T04:12:42;4.68;;;2.30;;
76714;SDS011;65644;44.990;20.288;2024-01-06T04:15:08;4.50;;;2.42;;
76714;SDS011;65644;44.990;20.288;2024-01-06T04:17:34;5.75;;;2.58;;
76714;SDS011;65644;44.990;20.288;2024-01-06T04:20:00;6.18;;;2.63;;
76714;SDS011;65644;44.990;20.288;2024-01-06T04:22:27;4.50;;;2.25;;
76714;SDS011;65644;44.990;20.288;2024-01-06T04:24:53;7.22;;;3.30;;
76714;SDS011;65644;44.990;20.288;2024-01-06T04:27:19;2.97;;;2.28;;
76714;SDS011;65644;44.990;20.288;2024-01-06T04:29:45;6.25;;;2.50;;
76714;SDS011;65644;44.990;20.288;2024-01-06T04:32:11;4.72;;;2.40;;
76714;SDS011;65644;44.990;20.288;2024-01-06T04:34:37;4.30;;;2.58;;
76714;SDS011;65644;44.990;20.288;2024-01-06T04:37:03;4.18;;;2.42;;
76714;SDS011;65644;44.990;20.288;2024-01-06T04:39:29;5.35;;;2.72;;
76714;SDS011;65644;44.990;20.288;2024-01-06T04:41:55;6.43;;;2.90;;
76714;SDS011;65644;44.990;20.288;2024-01-06T04:44:21;5.60;;;3.00;;
76714;SDS011;65644;44.990;20.288;2024-01-06T04:46:48;5.10;;;2.72;;
76714;SDS011;65644;44.990;20.288;2024-01-06T04:49:14;4.55;;;2.50;;
76714;SDS011;65644;44.990;20.288;2024-01-06T04:51:40;4.15;;;2.65;;
76714;SDS011;65644;44.990;20.288;2024-01-06T04:54:06;4.00;;;2.35;;
76714;SDS011;65644;44.990;20.288;2024-01-06T04:56:33;4.07;;;2.28;;
76714;SDS011;65644;44.990;20.288;2024-01-06T04:58:59;3.20;;;2.28;;
76714;SDS011;65644;44.990;20.288;2024-01-06T05:01:25;4.70;;;2.30;;
76714;SDS011;65644;44.990;20.288;2024-01-06T05:03:51;5.43;;;2.67;;
76714;SDS011;65644;44.990;20.288;2024-01-06T05:06:17;3.92;;;2.30;;
76714;SDS011;65644;44.990;20.288;2024-01-06T05:08:43;5.07;;;2.53;;
76714;SDS011;65644;44.990;20.288;2024-01-06T05:11:10;4.53;;;2.80;;
76714;SDS011;65644;44.990;20.288;2024-01-06T05:13:37;3.10;;;2.50;;
76714;SDS011;65644;44.990;20.288;2024-01-06T05:16:03;5.20;;;2.80;;
76714;SDS011;65644;44.990;20.288;2024-01-06T05:18:29;4.75;;;2.53;;
76714;SDS011;65644;44.990;20.288;2024-01-06T05:20:56;5.10;;;2.50;;
76714;SDS011;65644;44.990;20.288;2024-01-06T05:23:22;3.67;;;2.13;;
76714;SDS011;65644;44.990;20.288;2024-01-06T05:25:48;3.90;;;2.45;;
76714;SDS011;65644;44.990;20.288;2024-01-06T05:28:14;3.35;;;2.17;;
76714;SDS011;65644;44.990;20.288;2024-01-06T05:30:40;6.38;;;2.70;;
76714;SDS011;65644;44.990;20.288;2024-01-06T05:33:09;4.00;;;2.15;;
76714;SDS011;65644;44.990;20.288;2024-01-06T05:35:35;3.42;;;2.15;;
76714;SDS011;65644;44.990;20.288;2024-01-06T05:38:01;5.35;;;2.70;;
76714;SDS011;65644;44.990;20.288;2024-01-06T05:40:28;4.75;;;2.38;;
76714;SDS011;65644;44.990;20.288;2024-01-06T05:42:54;3.55;;;1.90;;
76714;SDS011;65644;44.990;20.288;2024-01-06T05:45:22;5.13;;;2.47;;
76714;SDS011;65644;44.990;20.288;2024-01-06T05:47:48;3.75;;;2.40;;
76714;SDS011;65644;44.990;20.288;2024-01-06T05:50:17;3.83;;;2.35;;
76714;SDS011;65644;44.990;20.288;2024-01-06T05:52:43;3.53;;;2.70;;
76714;SDS011;65644;44.990;20.288;2024-01-06T05:55:12;4.65;;;2.70;;
76714;SDS011;65644;44.990;20.288;2024-01-06T05:57:38;4.65;;;2.53;;
76714;SDS011;65644;44.990;20.288;2024-01-06T06:00:07;3.28;;;2.50;;
76714;SDS011;65644;44.990;20.288;2024-01-06T06:02:33;7.65;;;2.90;;
76714;SDS011;65644;44.990;20.288;2024-01-06T06:04:59;6.70;;;3.40;;
76714;SDS011;65644;44.990;20.288;2024-01-06T06:07:26;6.47;;;3.65;;
76714;SDS011;65644;44.990;20.288;2024-01-06T06:09:52;7.22;;;3.13;;
76714;SDS011;65644;44.990;20.288;2024-01-06T06:12:19;10.75;;;6.20;;
76714;SDS011;65644;44.990;20.288;2024-01-06T06:14:45;8.40;;;4.70;;
76714;SDS011;65644;44.990;20.288;2024-01-06T06:17:11;12.55;;;5.50;;
76714;SDS011;65644;44.990;20.288;2024-01-06T06:19:37;4.03;;;2.80;;
76714;SDS011;65644;44.990;20.288;2024-01-06T06:22:03;7.82;;;4.55;;
76714;SDS011;65644;44.990;20.288;2024-01-06T06:24:29;7.35;;;3.78;;
76714;SDS011;65644;44.990;20.288;2024-01-06T06:26:56;20.27;;;10.02;;
76714;SDS011;65644;44.990;20.288;2024-01-06T06:29:22;12.45;;;6.15;;
76714;SDS011;65644;44.990;20.288;2024-01-06T06:31:49;9.77;;;5.38;;
76714;SDS011;65644;44.990;20.288;2024-01-06T06:34:15;6.13;;;3.72;;
76714;SDS011;65644;44.990;20.288;2024-01-06T06:36:41;6.82;;;4.25;;
76714;SDS011;65644;44.990;20.288;2024-01-06T06:39:07;13.55;;;5.95;;
76714;SDS011;65644;44.990;20.288;2024-01-06T06:41:33;18.92;;;10.23;;
76714;SDS011;65644;44.990;20.288;2024-01-06T06:43:59;26.27;;;14.60;;
76714;SDS011;65644;44.990;20.288;2024-01-06T06:46:25;16.17;;;9.48;;
76714;SDS011;65644;44.990;20.288;2024-01-06T06:48:51;11.45;;;6.43;;
76714;SDS011;65644;44.990;20.288;2024-01-06T06:51:17;11.68;;;7.68;;
76714;SDS011;65644;44.990;20.288;2024-01-06T06:53:44;9.27;;;4.50;;
76714;SDS011;65644;44.990;20.288;2024-01-06T06:56:10;16.55;;;11.90;;
76714;SDS011;65644;44.990;20.288;2024-01-06T06:58:36;6.55;;;3.63;;
76714;SDS011;65644;44.990;20.288;2024-01-06T07:01:02;8.45;;;4.80;;
76714;SDS011;65644;44.990;20.288;2024-01-06T07:03:28;13.38;;;8.43;;
76714;SDS011;65644;44.990;20.288;2024-01-06T07:05:54;9.75;;;6.78;;
76714;SDS011;65644;44.990;20.288;2024-01-06T07:08:20;10.55;;;6.80;;
76714;SDS011;65644;44.990;20.288;2024-01-06T07:10:46;4.82;;;3.22;;
76714;SDS011;65644;44.990;20.288;2024-01-06T07:13:12;4.85;;;3.33;;
76714;SDS011;65644;44.990;20.288;2024-01-06T07:15:38;4.68;;;3.83;;
76714;SDS011;65644;44.990;20.288;2024-01-06T07:18:04;5.70;;;3.38;;
76714;SDS011;65644;44.990;20.288;2024-01-06T07:20:31;7.28;;;2.95;;
76714;SDS011;65644;44.990;20.288;2024-01-06T07:22:57;6.32;;;3.72;;
76714;SDS011;65644;44.990;20.288;2024-01-06T07:25:23;5.90;;;3.90;;
76714;SDS011;65644;44.990;20.288;2024-01-06T07:27:49;5.03;;;3.70;;
76714;SDS011;65644;44.990;20.288;2024-01-06T07:30:15;5.35;;;3.25;;
76714;SDS011;65644;44.990;20.288;2024-01-06T07:32:41;7.50;;;3.30;;
76714;SDS011;65644;44.990;20.288;2024-01-06T07:35:08;5.00;;;3.40;;
76714;SDS011;65644;44.990;20.288;2024-01-06T07:37:34;7.72;;;3.50;;
76714;SDS011;65644;44.990;20.288;2024-01-06T07:40:00;6.25;;;3.55;;
76714;SDS011;65644;44.990;20.288;2024-01-06T07:42:27;4.53;;;3.22;;
76714;SDS011;65644;44.990;20.288;2024-01-06T07:44:53;7.80;;;3.83;;
76714;SDS011;65644;44.990;20.288;2024-01-06T07:47:19;6.28;;;2.83;;
76714;SDS011;65644;44.990;20.288;2024-01-06T07:49:45;7.80;;;3.40;;
76714;SDS011;65644;44.990;20.288;2024-01-06T07:52:12;7.75;;;3.28;;
76714;SDS011;65644;44.990;20.288;2024-01-06T07:54:38;6.07;;;3.28;;
76714;SDS011;65644;44.990;20.288;2024-01-06T07:57:04;5.32;;;3.35;;
76714;SDS011;65644;44.990;20.288;2024-01-06T07:59:30;4.53;;;3.20;;
76714;SDS011;65644;44.990;20.288;2024-01-06T08:01:57;6.57;;;3.58;;
76714;SDS011;65644;44.990;20.288;2024-01-06T08:04:23;5.20;;;3.13;;
76714;SDS011;65644;44.990;20.288;2024-01-06T08:06:49;6.00;;;3.53;;
76714;SDS011;65644;44.990;20.288;2024-01-06T08:09:15;5.55;;;2.97;;
76714;SDS011;65644;44.990;20.288;2024-01-06T08:11:41;7.95;;;3.33;;
76714;SDS011;65644;44.990;20.288;2024-01-06T08:14:10;7.78;;;3.55;;
76714;SDS011;65644;44.990;20.288;2024-01-06T08:16:36;6.93;;;3.42;;
76714;SDS011;65644;44.990;20.288;2024-01-06T08:19:03;4.85;;;3.35;;
76714;SDS011;65644;44.990;20.288;2024-01-06T08:21:29;5.45;;;3.40;;
76714;SDS011;65644;44.990;20.288;2024-01-06T08:23:55;3.72;;;2.92;;
76714;SDS011;65644;44.990;20.288;2024-01-06T08:26:21;6.97;;;3.28;;
76714;SDS011;65644;44.990;20.288;2024-01-06T08:28:47;6.22;;;3.20;;
76714;SDS011;65644;44.990;20.288;2024-01-06T08:43:42;7.53;;;4.60;;
76714;SDS011;65644;44.990;20.288;2024-01-06T08:46:08;7.93;;;4.38;;
76714;SDS011;65644;44.990;20.288;2024-01-06T08:48:35;5.95;;;4.18;;
76714;SDS011;65644;44.990;20.288;2024-01-06T08:51:01;8.70;;;5.38;;
76714;SDS011;65644;44.990;20.288;2024-01-06T08:53:27;7.43;;;5.25;;
76714;SDS011;65644;44.990;20.288;2024-01-06T08:55:53;8.50;;;5.75;;
76714;SDS011;65644;44.990;20.288;2024-01-06T08:58:19;7.05;;;4.72;;
76714;SDS011;65644;44.990;20.288;2024-01-06T09:00:45;8.02;;;4.70;;
76714;SDS011;65644;44.990;20.288;2024-01-06T09:03:11;8.52;;;5.07;;
76714;SDS011;65644;44.990;20.288;2024-01-06T09:05:37;8.93;;;5.20;;
76714;SDS011;65644;44.990;20.288;2024-01-06T09:08:03;7.38;;;4.50;;
76714;SDS011;65644;44.990;20.288;2024-01-06T09:10:29;7.88;;;4.53;;
76714;SDS011;65644;44.990;20.288;2024-01-06T09:12:56;7.03;;;4.38;;
76714;SDS011;65644;44.990;20.288;2024-01-06T09:15:22;8.63;;;5.22;;
76714;SDS011;65644;44.990;20.288;2024-01-06T09:17:48;6.68;;;4.80;;
76714;SDS011;65644;44.990;20.288;2024-01-06T09:20:14;7.38;;;4.05;;
76714;SDS011;65644;44.990;20.288;2024-01-06T09:22:42;10.77;;;5.00;;
76714;SDS011;65644;44.990;20.288;2024-01-06T09:25:08;10.10;;;5.20;;
76714;SDS011;65644;44.990;20.288;2024-01-06T09:27:34;12.65;;;6.75;;
76714;SDS011;65644;44.990;20.288;2024-01-06T09:30:00;8.32;;;5.28;;
76714;SDS011;65644;44.990;20.288;2024-01-06T09:32:26;11.63;;;5.82;;
76714;SDS011;65644;44.990;20.288;2024-01-06T09:34:52;8.73;;;5.40;;
76714;SDS011;65644;44.990;20.288;2024-01-06T09:37:19;7.60;;;4.78;;
76714;SDS011;65644;44.990;20.288;2024-01-06T09:39:45;9.13;;;5.18;;
76714;SDS011;65644;44.990;20.288;2024-01-06T09:42:11;7.18;;;4.25;;
76714;SDS011;65644;44.990;20.288;2024-01-06T09:44:37;9.68;;;5.15;;
76714;SDS011;65644;44.990;20.288;2024-01-06T09:47:03;8.20;;;4.90;;
76714;SDS011;65644;44.990;20.288;2024-01-06T09:49:31;7.90;;;5.28;;
76714;SDS011;65644;44.990;20.288;2024-01-06T09:51:58;6.68;;;4.68;;
76714;SDS011;65644;44.990;20.288;2024-01-06T09:54:24;7.85;;;4.72;;
76714;SDS011;65644;44.990;20.288;2024-01-06T09:56:51;9.40;;;5.32;;
76714;SDS011;65644;44.990;20.288;2024-01-06T09:59:17;9.13;;;5.05;;
76714;SDS011;65644;44.990;20.288;2024-01-06T10:01:46;10.57;;;5.15;;
76714;SDS011;65644;44.990;20.288;2024-01-06T10:04:14;9.73;;;5.55;;
76714;SDS011;65644;44.990;20.288;2024-01-06T10:06:41;7.78;;;4.80;;
76714;SDS011;65644;44.990;20.288;2024-01-06T10:09:07;11.13;;;5.50;;
76714;SDS011;65644;44.990;20.288;2024-01-06T10:11:35;9.27;;;5.75;;
76714;SDS011;65644;44.990;20.288;2024-01-06T10:14:02;10.20;;;5.00;;
76714;SDS011;65644;44.990;20.288;2024-01-06T10:16:28;11.75;;;5.53;;
76714;SDS011;65644;44.990;20.288;2024-01-06T10:18:55;8.30;;;5.80;;
76714;SDS011;65644;44.990;20.288;2024-01-06T10:21:21;11.38;;;5.03;;
76714;SDS011;65644;44.990;20.288;2024-01-06T10:23:47;7.28;;;4.50;;
76714;SDS011;65644;44.990;20.288;2024-01-06T10:26:14;8.32;;;4.85;;
76714;SDS011;65644;44.990;20.288;2024-01-06T10:28:40;12.43;;;5.35;;
76714;SDS011;65644;44.990;20.288;2024-01-06T10:31:07;5.85;;;4.65;;
76714;SDS011;65644;44.990;20.288;2024-01-06T10:33:33;11.13;;;5.25;;
76714;SDS011;65644;44.990;20.288;2024-01-06T10:36:00;8.93;;;5.40;;
76714;SDS011;65644;44.990;20.288;2024-01-06T10:38:28;8.95;;;4.63;;
76714;SDS011;65644;44.990;20.288;2024-01-06T10:41:01;8.27;;;5.25;;
76714;SDS011;65644;44.990;20.288;2024-01-06T10:43:32;7.53;;;4.80;;
76714;SDS011;65644;44.990;20.288;2024-01-06T10:46:02;8.55;;;6.07;;
76714;SDS011;65644;44.990;20.288;2024-01-06T10:48:33;9.57;;;6.07;;
76714;SDS011;65644;44.990;20.288;2024-01-06T10:51:00;13.45;;;7.43;;
76714;SDS011;65644;44.990;20.288;2024-01-06T10:53:33;16.88;;;8.27;;
76714;SDS011;65644;44.990;20.288;2024-01-06T10:56:04;16.17;;;8.98;;
76714;SDS011;65644;44.990;20.288;2024-01-06T10:58:32;26.15;;;13.63;;
76714;SDS011;65644;44.990;20.288;2024-01-06T11:00:58;20.63;;;10.80;;
76714;SDS011;65644;44.990;20.288;2024-01-06T11:03:26;36.85;;;15.95;;
76714;SDS011;65644;44.990;20.288;2024-01-06T11:05:53;39.10;;;18.10;;
76714;SDS011;65644;44.990;20.288;2024-01-06T11:08:19;17.33;;;10.00;;
76714;SDS011;65644;44.990;20.288;2024-01-06T11:10:47;40.58;;;18.90;;
76714;SDS011;65644;44.990;20.288;2024-01-06T11:13:14;16.70;;;10.02;;
76714;SDS011;65644;44.990;20.288;2024-01-06T11:15:49;14.23;;;8.95;;
76714;SDS011;65644;44.990;20.288;2024-01-06T11:18:31;28.92;;;12.55;;
76714;SDS011;65644;44.990;20.288;2024-01-06T11:23:42;26.25;;;12.65;;
76714;SDS011;65644;44.990;20.288;2024-01-06T11:26:09;50.95;;;27.45;;
76714;SDS011;65644;44.990;20.288;2024-01-06T11:28:47;23.60;;;16.17;;
76714;SDS011;65644;44.990;20.288;2024-01-06T11:31:13;21.75;;;16.00;;
76714;SDS011;65644;44.990;20.288;2024-01-06T11:33:43;26.67;;;18.50;;
76714;SDS011;65644;44.990;20.288;2024-01-06T11:36:09;25.70;;;16.67;;
76714;SDS011;65644;44.990;20.288;2024-01-06T11:38:39;15.25;;;10.88;;
76714;SDS011;65644;44.990;20.288;2024-01-06T11:41:08;14.13;;;6.72;;
76714;SDS011;65644;44.990;20.288;2024-01-06T11:43:37;7.18;;;5.25;;
76714;SDS011;65644;44.990;20.288;2024-01-06T11:46:06;9.75;;;5.20;;
76714;SDS011;65644;44.990;20.288;2024-01-06T11:48:34;7.93;;;4.60;;
76714;SDS011;65644;44.990;20.288;2024-01-06T11:51:01;10.43;;;4.55;;
76714;SDS011;65644;44.990;20.288;2024-01-06T11:53:32;9.85;;;5.35;;
76714;SDS011;65644;44.990;20.288;2024-01-06T11:55:59;8.52;;;5.00;;
76714;SDS011;65644;44.990;20.288;2024-01-06T11:58:25;8.35;;;5.40;;
76714;SDS011;65644;44.990;20.288;2024-01-06T12:00:55;11.18;;;8.13;;
76714;SDS011;65644;44.990;20.288;2024-01-06T12:03:24;10.88;;;7.18;;
76714;SDS011;65644;44.990;20.288;2024-01-06T12:06:00;11.55;;;7.97;;
76714;SDS011;65644;44.990;20.288;2024-01-06T12:08:28;14.23;;;8.30;;
76714;SDS011;65644;44.990;20.288;2024-01-06T12:11:04;12.70;;;8.07;;
76714;SDS011;65644;44.990;20.288;2024-01-06T12:13:31;11.18;;;7.72;;
76714;SDS011;65644;44.990;20.288;2024-01-06T12:15:57;12.48;;;7.70;;
76714;SDS011;65644;44.990;20.288;2024-01-06T12:18:23;12.00;;;8.20;;
76714;SDS011;65644;44.990;20.288;2024-01-06T12:20:50;11.52;;;7.32;;
76714;SDS011;65644;44.990;20.288;2024-01-06T12:23:25;11.15;;;7.07;;
76714;SDS011;65644;44.990;20.288;2024-01-06T12:25:53;9.70;;;6.97;;
76714;SDS011;65644;44.990;20.288;2024-01-06T12:28:19;9.50;;;6.38;;
76714;SDS011;65644;44.990;20.288;2024-01-06T12:30:45;11.70;;;6.57;;
76714;SDS011;65644;44.990;20.288;2024-01-06T12:33:11;11.65;;;6.45;;
76714;SDS011;65644;44.990;20.288;2024-01-06T12:35:39;9.30;;;5.93;;
76714;SDS011;65644;44.990;20.288;2024-01-06T12:38:06;10.38;;;6.55;;
76714;SDS011;65644;44.990;20.288;2024-01-06T12:40:35;10.25;;;6.38;;
76714;SDS011;65644;44.990;20.288;2024-01-06T12:43:02;11.15;;;6.47;;
76714;SDS011;65644;44.990;20.288;2024-01-06T12:45:28;11.85;;;6.75;;
76714;SDS011;65644;44.990;20.288;2024-01-06T12:47:54;10.82;;;6.38;;
76714;SDS011;65644;44.990;20.288;2024-01-06T12:50:20;10.70;;;5.97;;
76714;SDS011;65644;44.990;20.288;2024-01-06T12:52:46;12.27;;;6.78;;
76714;SDS011;65644;44.990;20.288;2024-01-06T12:55:12;11.07;;;5.93;;
76714;SDS011;65644;44.990;20.288;2024-01-06T12:57:38;9.93;;;7.00;;
76714;SDS011;65644;44.990;20.288;2024-01-06T13:00:05;11.13;;;7.38;;
76714;SDS011;65644;44.990;20.288;2024-01-06T13:02:32;14.25;;;7.50;;
76714;SDS011;65644;44.990;20.288;2024-01-06T13:04:59;11.93;;;7.43;;
76714;SDS011;65644;44.990;20.288;2024-01-06T13:07:25;13.48;;;7.88;;
76714;SDS011;65644;44.990;20.288;2024-01-06T13:09:51;14.38;;;8.68;;
76714;SDS011;65644;44.990;20.288;2024-01-06T13:12:17;10.38;;;8.15;;
76714;SDS011;65644;44.990;20.288;2024-01-06T13:14:43;11.80;;;7.75;;
76714;SDS011;65644;44.990;20.288;2024-01-06T13:17:12;14.75;;;8.00;;
76714;SDS011;65644;44.990;20.288;2024-01-06T13:19:39;11.25;;;6.90;;
76714;SDS011;65644;44.990;20.288;2024-01-06T13:22:05;10.23;;;6.57;;
76714;SDS011;65644;44.990;20.288;2024-01-06T13:24:31;8.43;;;5.90;;
76714;SDS011;65644;44.990;20.288;2024-01-06T13:26:57;9.40;;;5.95;;
76714;SDS011;65644;44.990;20.288;2024-01-06T13:29:27;8.20;;;5.65;;
76714;SDS011;65644;44.990;20.288;2024-01-06T13:31:53;8.80;;;5.68;;
76714;SDS011;65644;44.990;20.288;2024-01-06T13:34:19;11.23;;;6.88;;
76714;SDS011;65644;44.990;20.288;2024-01-06T13:36:46;24.83;;;13.68;;
76714;SDS011;65644;44.990;20.288;2024-01-06T13:39:12;15.48;;;10.13;;
76714;SDS011;65644;44.990;20.288;2024-01-06T13:41:45;15.85;;;10.02;;
76714;SDS011;65644;44.990;20.288;2024-01-06T13:44:12;22.42;;;14.07;;
76714;SDS011;65644;44.990;20.288;2024-01-06T13:46:39;10.27;;;6.75;;
76714;SDS011;65644;44.990;20.288;2024-01-06T13:49:12;10.27;;;6.60;;
76714;SDS011;65644;44.990;20.288;2024-01-06T13:51:39;9.85;;;6.13;;
76714;SDS011;65644;44.990;20.288;2024-01-06T13:54:05;7.75;;;4.95;;
76714;SDS011;65644;44.990;20.288;2024-01-06T13:56:31;8.27;;;4.88;;
76714;SDS011;65644;44.990;20.288;2024-01-06T13:58:57;8.77;;;4.88;;
76714;SDS011;65644;44.990;20.288;2024-01-06T14:01:24;10.07;;;5.25;;
76714;SDS011;65644;44.990;20.288;2024-01-06T14:03:50;8.40;;;5.10;;
76714;SDS011;65644;44.990;20.288;2024-01-06T14:06:23;7.88;;;5.43;;
76714;SDS011;65644;44.990;20.288;2024-01-06T14:08:49;7.95;;;5.65;;
76714;SDS011;65644;44.990;20.288;2024-01-06T14:11:15;9.63;;;6.68;;
76714;SDS011;65644;44.990;20.288;2024-01-06T14:13:41;10.20;;;6.30;;
76714;SDS011;65644;44.990;20.288;2024-01-06T14:16:07;14.23;;;7.25;;
76714;SDS011;65644;44.990;20.288;2024-01-06T14:18:33;13.00;;;7.75;;
76714;SDS011;65644;44.990;20.288;2024-01-06T14:20:59;11.30;;;7.68;;
76714;SDS011;65644;44.990;20.288;2024-01-06T14:23:25;10.05;;;7.00;;
76714;SDS011;65644;44.990;20.288;2024-01-06T14:25:54;13.63;;;8.10;;
76714;SDS011;65644;44.990;20.288;2024-01-06T14:28:20;11.93;;;7.18;;
76714;SDS011;65644;44.990;20.288;2024-01-06T14:30:47;10.55;;;7.68;;
76714;SDS011;65644;44.990;20.288;2024-01-06T14:33:13;9.95;;;7.78;;
76714;SDS011;65644;44.990;20.288;2024-01-06T14:35:39;9.20;;;7.07;;
76714;SDS011;65644;44.990;20.288;2024-01-06T14:38:06;12.13;;;8.15;;
76714;SDS011;65644;44.990;20.288;2024-01-06T14:40:32;25.33;;;15.77;;